Yost Woods, Indiana
Current Conditions -  °F | °C
As of 7:54 AM on Monday 22 Dec 2014 (Local Time) from KFWA Reporting Station
Haze Haze  
Wind Chill: 16°   Ceiling: 10000
Heat Index: 25°   Visibility: 4mi
Dew Point: 22°   Wind: 8mph
Humidity: 88%   Direction: 80°E
Pressure: 30.02"   Gusts: NA
Location:  40.8317°N, 84.9398°W
Report Text: KFWA 221254Z 08007KT 4SM BR FEW040 BKN100 M04/M06 A3002 RMK AO2 SLP175 T10391056
Loading
Personal Weather Stations






























Interactive Weather Map New forecast layout! Learn more

10-Day Weather Forecast

Advertisements
Track Severe Weather on mobile